Time;durP1;ratioP1;P1;durP2;ratioP2;P2;SDS_P1;SDS_P2;PMS_P1;PMS_P2;Temp;Humidity;BMP_temperature;BMP_pressure;BME280_temperature;BME280_humidity;BME280_pressure;Samples;Min_cycle;Max_cycle;Signal;HPM_P1;HPM_P2
2021/06/16 00:01:30;;;;;;;6.13;2.80;;;;;;;16.15;98.85;96328.94;5039524;28;20232;-72
2021/06/16 00:03:56;;;;;;;5.32;3.00;;;;;;;16.11;100.00;96328.53;5038800;28;20221;-72
2021/06/16 00:06:23;;;;;;;9.05;3.20;;;;;;;16.06;99.85;96325.72;5037440;28;20209;-72
2021/06/16 00:08:49;;;;;;;4.40;3.30;;;;;;;16.07;100.00;96319.34;5038310;28;21194;-72
2021/06/16 00:11:17;;;;;;;9.43;3.25;;;;;;;16.03;100.00;96327.97;5038574;28;20218;-72
2021/06/16 00:13:43;;;;;;;9.65;2.70;;;;;;;16.10;99.64;96323.44;5038005;28;20248;-72
2021/06/16 00:16:10;;;;;;;8.70;3.13;;;;;;;16.08;99.65;96315.69;5036396;28;20584;-72
2021/06/16 00:18:36;;;;;;;9.20;3.00;;;;;;;16.06;99.84;96312.44;5037832;28;20201;-72
2021/06/16 00:21:03;;;;;;;6.40;2.97;;;;;;;16.06;100.00;96312.44;5037322;28;20738;-72
2021/06/16 00:23:29;;;;;;;5.53;3.10;;;;;;;16.05;99.85;96309.94;5037704;28;20247;-72
2021/06/16 00:25:56;;;;;;;4.82;3.53;;;;;;;15.96;100.00;96314.69;5036827;28;20232;-72
2021/06/16 00:28:23;;;;;;;7.18;3.50;;;;;;;16.01;100.00;96314.06;5036342;28;20225;-72
2021/06/16 00:30:50;;;;;;;6.93;3.47;;;;;;;15.99;100.00;96319.59;5037004;28;20620;-72
2021/06/16 00:33:18;;;;;;;11.18;3.60;;;;;;;15.98;100.00;96315.28;5036916;28;20729;-72
2021/06/16 00:35:44;;;;;;;6.65;3.15;;;;;;;15.92;100.00;96316.13;5035962;28;20725;-72
2021/06/16 00:38:11;;;;;;;6.65;3.30;;;;;;;15.94;100.00;96318.59;5036690;28;20200;-72
2021/06/16 00:40:37;;;;;;;11.05;3.25;;;;;;;15.86;100.00;96316.97;5036774;28;20651;-72
2021/06/16 00:43:04;;;;;;;13.82;3.55;;;;;;;15.74;100.00;96316.97;5034768;28;20208;-72
2021/06/16 00:45:32;;;;;;;10.32;3.58;;;;;;;15.79;100.00;96315.34;5036019;28;20225;-72
2021/06/16 00:47:59;;;;;;;12.00;3.65;;;;;;;15.78;100.00;96318.19;5036687;28;20225;-72
2021/06/16 00:50:28;;;;;;;6.05;2.90;;;;;;;15.79;100.00;96311.88;5036466;28;20208;-72
2021/06/16 00:52:54;;;;;;;8.00;3.28;;;;;;;15.82;100.00;96314.09;5036465;28;20266;-72
2021/06/16 00:55:21;;;;;;;5.32;2.80;;;;;;;15.77;100.00;96312.09;5036049;28;20228;-72
2021/06/16 00:57:48;;;;;;;5.85;3.00;;;;;;;15.79;100.00;96314.53;5036172;28;20205;-72
2021/06/16 01:00:18;;;;;;;10.80;3.22;;;;;;;15.70;100.00;96327.19;5034131;28;20621;-72
2021/06/16 01:02:52;;;;;;;8.80;3.30;;;;;;;15.71;100.00;96325.38;5036438;28;20205;-72
2021/06/16 01:05:20;;;;;;;6.57;3.40;;;;;;;15.77;100.00;96327.19;5034874;28;20225;-72
2021/06/16 01:07:55;;;;;;;7.88;3.10;;;;;;;15.79;100.00;96325.16;5035902;28;20204;-72
2021/06/16 01:10:24;;;;;;;11.20;3.40;;;;;;;15.67;100.00;96329.44;5036272;28;20705;-72
2021/06/16 01:13:00;;;;;;;5.88;3.30;;;;;;;15.65;100.00;96331.50;5037943;28;20208;-72
2021/06/16 01:15:30;;;;;;;7.00;3.17;;;;;;;15.56;100.00;96340.69;5033928;28;68365;-71
2021/06/16 01:18:00;;;;;;;5.65;3.53;;;;;;;15.52;100.00;96332.31;5037156;28;20193;-72
2021/06/16 01:20:33;;;;;;;7.78;3.20;;;;;;;15.58;100.00;96322.69;5037826;28;20208;-72
2021/06/16 01:23:10;;;;;;;7.95;4.35;;;;;;;15.54;100.00;96326.78;5036989;28;20255;-72
2021/06/16 01:25:39;;;;;;;10.80;3.40;;;;;;;15.51;100.00;96330.69;5036368;28;20229;-72
2021/06/16 01:28:09;;;;;;;7.03;3.55;;;;;;;15.47;100.00;96320.69;5036294;28;20793;-72
2021/06/16 01:30:37;;;;;;;10.05;3.30;;;;;;;15.45;100.00;96325.38;5036987;28;20698;-72
2021/06/16 01:33:06;;;;;;;11.30;3.03;;;;;;;15.46;100.00;96325.16;5036458;28;20212;-72
2021/06/16 01:35:33;;;;;;;10.70;2.92;;;;;;;15.40;100.00;96325.16;5036095;28;20228;-72
2021/06/16 01:38:01;;;;;;;10.27;3.28;;;;;;;15.38;100.00;96322.72;5037042;28;20194;-71
2021/06/16 01:40:29;;;;;;;7.85;3.50;;;;;;;15.35;100.00;96317.81;5036686;28;20911;-72
2021/06/16 01:42:56;;;;;;;6.65;3.33;;;;;;;15.26;100.00;96319.03;5037408;28;20216;-72
2021/06/16 01:45:26;;;;;;;6.72;3.28;;;;;;;15.27;100.00;96325.16;5036351;28;20221;-72
2021/06/16 01:47:53;;;;;;;8.40;3.10;;;;;;;15.32;100.00;96322.72;5036829;28;20208;-72
2021/06/16 01:50:21;;;;;;;7.20;3.20;;;;;;;15.32;100.00;96317.41;5036985;28;20952;-72
2021/06/16 01:52:52;;;;;;;5.32;3.20;;;;;;;15.24;100.00;96315.75;5037143;28;20204;-72
2021/06/16 01:55:19;;;;;;;8.60;3.33;;;;;;;15.18;100.00;96326.34;5036615;28;20233;-72
2021/06/16 01:57:47;;;;;;;6.85;3.65;;;;;;;15.29;100.00;96317.81;5036902;28;20205;-72
2021/06/16 02:00:14;;;;;;;6.97;3.70;;;;;;;15.17;100.00;96318.59;5037004;28;20201;-72
2021/06/16 02:02:43;;;;;;;6.63;3.70;;;;;;;15.17;100.00;96319.41;5037259;28;20206;-72
2021/06/16 02:05:11;;;;;;;8.95;3.58;;;;;;;15.08;100.00;96320.63;5036299;28;20737;-72
2021/06/16 02:07:41;;;;;;;13.18;3.72;;;;;;;15.00;100.00;96312.84;5037446;28;20193;-72
2021/06/16 02:10:10;;;;;;;12.40;3.90;;;;;;;15.08;100.00;96325.91;5037414;28;20220;-72
2021/06/16 02:12:38;;;;;;;8.02;3.55;;;;;;;15.04;100.00;96318.59;5037161;28;20279;-72
2021/06/16 02:15:10;;;;;;;9.02;3.72;;;;;;;15.01;100.00;96319.81;5036981;28;20237;-72
2021/06/16 02:17:38;;;;;;;12.88;3.97;;;;;;;14.83;100.00;96305.50;5040613;28;20201;-72
2021/06/16 02:20:07;;;;;;;8.48;3.72;;;;;;;14.91;100.00;96306.09;5040061;28;20573;-72
2021/06/16 02:22:35;;;;;;;12.95;3.72;;;;;;;14.81;100.00;96303.00;5040654;28;20205;-72
2021/06/16 02:25:02;;;;;;;7.85;3.97;;;;;;;14.84;100.00;96297.31;5040479;28;20217;-72
2021/06/16 02:27:28;;;;;;;10.13;3.75;;;;;;;14.97;100.00;96301.81;5040366;28;20247;-72
2021/06/16 02:29:55;;;;;;;7.25;3.90;;;;;;;14.90;100.00;96301.81;5039322;28;20221;-72
2021/06/16 02:32:22;;;;;;;13.45;4.05;;;;;;;14.90;100.00;96296.50;5039757;28;20218;-72
2021/06/16 02:34:48;;;;;;;8.07;3.72;;;;;;;14.93;100.00;96295.28;5040208;28;20229;-71
2021/06/16 02:37:19;;;;;;;7.18;3.72;;;;;;;14.81;100.00;96299.56;5039388;28;20652;-72
2021/06/16 02:39:50;;;;;;;5.30;3.33;;;;;;;14.77;100.00;96299.13;5040196;28;20606;-72
2021/06/16 02:42:18;;;;;;;5.68;3.55;;;;;;;14.90;100.00;96293.84;5040367;28;20579;-72
2021/06/16 02:44:45;;;;;;;10.98;3.75;;;;;;;14.89;100.00;96292.22;5039713;28;20217;-72
2021/06/16 02:47:13;;;;;;;7.25;3.92;;;;;;;14.82;100.00;96291.41;5038963;28;20205;-72
2021/06/16 02:49:44;;;;;;;6.15;3.80;;;;;;;14.87;100.00;96286.31;5039787;28;20232;-72
2021/06/16 02:52:12;;;;;;;6.75;3.88;;;;;;;14.91;100.00;96284.88;5039114;28;20212;-72
2021/06/16 02:54:43;;;;;;;14.43;4.13;;;;;;;14.87;100.00;96290.81;5039606;28;20221;-71
2021/06/16 02:57:13;;;;;;;7.47;3.58;;;;;;;14.84;100.00;96284.06;5035430;28;20208;-72
2021/06/16 02:59:42;;;;;;;9.35;4.10;;;;;;;14.82;100.00;96283.44;5039936;28;20562;-72
2021/06/16 03:02:09;;;;;;;10.43;3.72;;;;;;;14.82;100.00;96277.31;5039175;28;21021;-72
2021/06/16 03:04:36;;;;;;;12.98;3.63;;;;;;;14.70;100.00;96279.75;5039208;28;20257;-72
2021/06/16 03:07:03;;;;;;;8.60;3.85;;;;;;;14.80;100.00;96274.88;5038494;28;20197;-72
2021/06/16 03:09:30;;;;;;;7.95;3.38;;;;;;;14.71;100.00;96281.38;5039153;28;20224;-71
2021/06/16 03:12:00;;;;;;;7.82;3.58;;;;;;;14.71;100.00;96276.09;5038666;28;20216;-72
2021/06/16 03:14:27;;;;;;;11.20;3.80;;;;;;;14.66;100.00;96273.22;5038951;28;20240;-72
2021/06/16 03:16:55;;;;;;;12.43;3.67;;;;;;;14.58;100.00;96279.72;5038802;28;20201;-72
2021/06/16 03:19:22;;;;;;;9.82;3.63;;;;;;;14.58;100.00;96282.38;5039122;28;20197;-71
2021/06/16 03:21:50;;;;;;;16.77;4.40;;;;;;;14.47;100.00;96282.94;5038703;28;20201;-72
2021/06/16 03:24:19;;;;;;;9.48;4.22;;;;;;;14.43;100.00;96287.81;5038996;28;20225;-72
2021/06/16 03:26:47;;;;;;;10.52;3.78;;;;;;;14.41;100.00;96289.88;5036767;28;20197;-72
2021/06/16 03:29:15;;;;;;;7.03;4.15;;;;;;;14.51;100.00;96284.16;5038405;28;21186;-72
2021/06/16 03:31:43;;;;;;;7.63;3.67;;;;;;;14.44;100.00;96289.47;5038774;28;20197;-72
2021/06/16 03:34:10;;;;;;;9.40;4.10;;;;;;;14.50;100.00;96287.84;5038410;28;20700;-72
2021/06/16 03:36:38;;;;;;;11.85;4.20;;;;;;;14.54;100.00;96291.75;5037377;28;20228;-72
2021/06/16 03:39:06;;;;;;;15.38;4.53;;;;;;;14.51;100.00;96285.00;5039418;28;20339;-72
2021/06/16 03:41:33;;;;;;;12.10;4.10;;;;;;;14.56;100.00;96289.69;5038450;28;20201;-72
2021/06/16 03:44:01;;;;;;;8.43;4.30;;;;;;;14.50;100.00;96287.84;5038843;28;20220;-71
2021/06/16 03:46:30;;;;;;;9.13;4.10;;;;;;;14.58;100.00;96291.13;5038110;28;20620;-72
2021/06/16 03:48:58;;;;;;;10.50;4.45;;;;;;;14.63;100.00;96289.50;5038138;28;20773;-72
2021/06/16 03:51:27;;;;;;;12.15;4.43;;;;;;;14.63;100.00;96294.00;5038339;28;20218;-72
2021/06/16 03:53:54;;;;;;;8.30;4.57;;;;;;;14.67;100.00;96293.38;5038357;28;20718;-72
2021/06/16 03:56:22;;;;;;;6.95;4.30;;;;;;;14.75;100.00;96297.69;5037804;28;20208;-72
2021/06/16 03:58:49;;;;;;;9.35;4.15;;;;;;;14.86;100.00;96295.28;5037962;28;20197;-72
2021/06/16 04:01:17;;;;;;;14.82;4.90;;;;;;;14.81;100.00;96295.06;5038568;28;20204;-72
2021/06/16 04:03:45;;;;;;;9.68;4.50;;;;;;;14.89;100.00;96294.06;5037478;28;21019;-72
2021/06/16 04:06:14;;;;;;;8.85;4.75;;;;;;;15.02;100.00;96294.06;5037506;28;20205;-71
2021/06/16 04:08:41;;;;;;;9.85;4.80;;;;;;;15.07;100.00;96294.28;5037878;28;20252;-72
2021/06/16 04:11:08;;;;;;;11.23;4.75;;;;;;;15.06;100.00;96295.28;5037720;28;20205;-72
2021/06/16 04:13:35;;;;;;;13.20;4.88;;;;;;;15.10;100.00;96297.34;5037826;28;20201;-72
2021/06/16 04:16:03;;;;;;;14.27;5.20;;;;;;;14.99;100.00;96295.28;5037008;28;20212;-72
2021/06/16 04:18:32;;;;;;;11.35;5.05;;;;;;;14.99;100.00;96295.28;5038010;28;20212;-72
2021/06/16 04:21:00;;;;;;;12.68;4.78;;;;;;;15.11;100.00;96292.84;5038088;28;20197;-72
2021/06/16 04:23:27;;;;;;;17.25;4.75;;;;;;;15.21;100.00;96288.81;5037921;28;20461;-72
2021/06/16 04:25:54;;;;;;;10.85;5.18;;;;;;;15.23;100.00;96293.94;5037069;28;20231;-71
2021/06/16 04:28:20;;;;;;;15.32;5.20;;;;;;;15.30;100.00;96298.22;5037653;28;20678;-72
2021/06/16 04:30:47;;;;;;;16.13;4.88;;;;;;;15.31;100.00;96298.00;5037689;28;21071;-72
2021/06/16 04:33:13;;;;;;;11.95;4.50;;;;;;;15.27;100.00;96290.66;5038348;28;20221;-72
2021/06/16 04:35:40;;;;;;;11.27;4.70;;;;;;;15.30;100.00;96292.91;5037046;28;20224;-72
2021/06/16 04:38:08;;;;;;;12.05;4.40;;;;;;;15.50;100.00;96288.41;5036629;28;20209;-71
2021/06/16 04:40:34;;;;;;;7.90;4.25;;;;;;;15.69;100.00;96284.91;5037208;28;20663;-71
2021/06/16 04:43:01;;;;;;;9.02;4.82;;;;;;;15.84;100.00;96281.78;5037065;28;20201;-72
2021/06/16 04:45:27;;;;;;;7.47;4.40;;;;;;;16.00;100.00;96284.00;5035305;28;20224;-71
2021/06/16 04:47:54;;;;;;;8.05;5.20;;;;;;;16.21;100.00;96285.59;5036719;28;20208;-72
2021/06/16 04:50:20;;;;;;;12.68;5.25;;;;;;;16.18;100.00;96286.81;5037334;28;20598;-71
2021/06/16 04:52:47;;;;;;;9.35;4.60;;;;;;;16.14;100.00;96279.47;5036299;28;20204;-72
2021/06/16 04:55:15;;;;;;;10.73;5.10;;;;;;;16.18;100.00;96284.16;5035753;28;20225;-71
2021/06/16 04:57:41;;;;;;;10.65;5.00;;;;;;;16.40;100.00;96280.22;5036604;28;20220;-71
2021/06/16 05:00:11;;;;;;;17.63;5.82;;;;;;;16.56;100.00;96285.88;5036739;28;20201;-71
2021/06/16 05:02:38;;;;;;;12.30;5.40;;;;;;;16.67;100.00;96279.84;5036468;28;21186;-72
2021/06/16 05:05:05;;;;;;;14.10;6.10;;;;;;;16.77;100.00;96287.38;5035472;28;20236;-72
2021/06/16 05:07:32;;;;;;;13.70;6.10;;;;;;;16.92;100.00;96279.94;5036473;28;20201;-72
2021/06/16 05:09:58;;;;;;;16.77;6.70;;;;;;;17.11;100.00;96285.13;5035807;28;20220;-72
2021/06/16 05:12:26;;;;;;;19.63;6.10;;;;;;;17.27;100.00;96282.78;5036401;28;20205;-72
2021/06/16 05:14:53;;;;;;;17.17;5.88;;;;;;;17.50;100.00;96283.00;5036222;28;20233;-72
2021/06/16 05:17:20;;;;;;;16.48;6.07;;;;;;;17.53;100.00;96282.56;5035549;28;20205;-72
2021/06/16 05:19:46;;;;;;;10.93;6.78;;;;;;;17.70;100.00;96278.28;5036557;28;20199;-71
2021/06/16 05:22:15;;;;;;;19.90;5.85;;;;;;;17.76;100.00;96274.75;5035705;28;20208;-72
2021/06/16 05:24:42;;;;;;;14.82;6.45;;;;;;;17.82;100.00;96271.22;5035968;28;20710;-71
2021/06/16 05:27:09;;;;;;;12.27;6.57;;;;;;;17.90;100.00;96276.25;5035085;28;20209;-72
2021/06/16 05:29:37;;;;;;;15.13;7.03;;;;;;;17.84;100.00;96279.78;5036685;28;20217;-71
2021/06/16 05:32:04;;;;;;;11.57;6.97;;;;;;;17.89;100.00;96278.09;5036048;28;20209;-72
2021/06/16 05:34:30;;;;;;;13.82;6.72;;;;;;;18.01;100.00;96272.84;5036457;28;20220;-71
2021/06/16 05:36:57;;;;;;;15.07;7.50;;;;;;;18.12;100.00;96277.44;5035466;28;20201;-71
2021/06/16 05:39:23;;;;;;;14.70;7.88;;;;;;;18.11;100.00;96275.81;5035958;28;20202;-71
2021/06/16 05:41:50;;;;;;;17.02;7.53;;;;;;;18.19;100.00;96267.53;5036414;28;20205;-72
2021/06/16 05:44:16;;;;;;;11.55;7.90;;;;;;;18.21;100.00;96276.94;5035895;28;20237;-72
2021/06/16 05:46:44;;;;;;;14.25;8.18;;;;;;;18.26;100.00;96269.09;5035239;28;20205;-72
2021/06/16 05:49:10;;;;;;;15.68;7.45;;;;;;;18.41;100.00;96266.88;5035819;28;20216;-72
2021/06/16 05:51:37;;;;;;;15.25;8.00;;;;;;;18.50;100.00;96274.34;5040231;28;20204;-72
2021/06/16 05:54:09;;;;;;;17.88;8.32;;;;;;;18.58;100.00;96274.06;5045154;28;20239;-73
2021/06/16 05:56:36;;;;;;;16.48;8.23;;;;;;;18.70;100.00;96277.56;5045111;28;20674;-73
2021/06/16 05:59:02;;;;;;;19.17;9.25;;;;;;;18.70;100.00;96272.22;5044465;28;20212;-73
2021/06/16 06:01:29;;;;;;;21.50;8.23;;;;;;;18.73;100.00;96277.09;5045309;28;20201;-73
2021/06/16 06:03:56;;;;;;;12.95;7.65;;;;;;;18.76;99.62;96273.19;5045496;28;20229;-73
2021/06/16 06:06:23;;;;;;;17.30;8.65;;;;;;;18.75;100.00;96268.88;5044576;28;20205;-72
2021/06/16 06:08:49;;;;;;;18.58;8.60;;;;;;;18.86;100.00;96266.25;5044186;28;20200;-72
2021/06/16 06:11:16;;;;;;;16.58;8.18;;;;;;;18.82;98.40;96270.41;5044637;28;20236;-72
2021/06/16 06:13:42;;;;;;;13.73;7.88;;;;;;;18.87;98.25;96272.41;5044612;28;20208;-72
2021/06/16 06:16:10;;;;;;;20.27;8.27;;;;;;;19.00;97.94;96271.19;5045199;28;20213;-72
2021/06/16 06:18:37;;;;;;;14.57;8.32;;;;;;;18.99;100.00;96268.72;5046904;28;20212;-72
2021/06/16 06:21:05;;;;;;;20.42;7.97;;;;;;;19.17;95.77;96274.03;5046341;28;20213;-72
2021/06/16 06:23:31;;;;;;;17.42;9.10;;;;;;;19.23;96.84;96270.44;5045909;28;20208;-72
2021/06/16 06:25:58;;;;;;;18.02;8.30;;;;;;;19.28;95.54;96267.91;5045795;28;20715;-72
2021/06/16 06:28:24;;;;;;;19.88;8.75;;;;;;;19.33;96.83;96273.38;5046609;28;20228;-72
2021/06/16 06:30:51;;;;;;;17.23;8.70;;;;;;;19.43;96.15;96268.28;5045305;28;20224;-72
2021/06/16 06:33:17;;;;;;;14.80;8.52;;;;;;;19.51;91.81;96270.63;5045527;28;20205;-72
2021/06/16 06:35:44;;;;;;;17.30;8.52;;;;;;;19.49;96.32;96264.69;5045739;28;20754;-72
2021/06/16 06:38:13;;;;;;;16.90;8.40;;;;;;;19.54;93.38;96270.16;5046651;28;20698;-72
2021/06/16 06:40:39;;;;;;;20.05;9.20;;;;;;;19.58;93.45;96266.78;5045741;28;20201;-72
2021/06/16 06:43:06;;;;;;;15.15;9.07;;;;;;;19.58;96.19;96267.59;5043243;28;20209;-72
2021/06/16 06:45:32;;;;;;;16.67;9.02;;;;;;;19.68;96.79;96267.03;5044169;28;20471;-72
2021/06/16 06:47:59;;;;;;;21.67;9.25;;;;;;;19.80;92.74;96262.50;5045092;28;20212;-72
2021/06/16 06:50:26;;;;;;;18.88;8.75;;;;;;;19.89;93.72;96263.78;5044629;28;20225;-72
2021/06/16 06:52:52;;;;;;;13.15;6.60;;;;;;;20.15;90.79;96261.47;5045649;28;20575;-72
2021/06/16 06:55:20;;;;;;;12.93;7.20;;;;;;;20.39;88.79;96261.16;5046296;28;20236;-73
2021/06/16 06:57:47;;;;;;;16.75;8.18;;;;;;;20.63;87.35;96259.22;5045726;28;20197;-73
2021/06/16 07:00:15;;;;;;;20.50;7.13;;;;;;;20.80;85.42;96263.63;5045742;28;20204;-73
2021/06/16 07:02:43;;;;;;;16.85;7.90;;;;;;;20.97;84.76;96262.59;5045996;28;20821;-73
2021/06/16 07:05:11;;;;;;;15.10;7.65;;;;;;;21.15;86.63;96264.28;5046554;28;20225;-73
2021/06/16 07:07:38;;;;;;;13.88;6.25;;;;;;;21.26;84.13;96258.03;5046676;28;20237;-73
2021/06/16 07:10:04;;;;;;;19.10;7.55;;;;;;;21.41;85.23;96258.28;5046864;28;20244;-73
2021/06/16 07:12:32;;;;;;;10.80;6.65;;;;;;;21.51;82.39;96260.13;5046189;28;20197;-73
2021/06/16 07:14:58;;;;;;;12.45;7.50;;;;;;;21.67;85.74;96255.78;5045973;28;20241;-73
2021/06/16 07:17:25;;;;;;;10.60;5.80;;;;;;;21.67;83.38;96255.78;5046019;28;20201;-73
2021/06/16 07:19:52;;;;;;;14.27;6.03;;;;;;;21.70;84.59;96257.97;5046603;28;20201;-73
2021/06/16 07:22:19;;;;;;;7.57;5.00;;;;;;;21.80;80.30;96256.25;5046281;28;20209;-73
2021/06/16 07:24:45;;;;;;;10.25;5.18;;;;;;;22.03;79.56;96247.22;5045964;28;20219;-73
2021/06/16 07:27:12;;;;;;;6.65;3.88;;;;;;;22.18;77.43;96253.59;5045595;28;20225;-73
2021/06/16 07:29:40;;;;;;;11.50;4.95;;;;;;;22.35;78.57;96243.66;5045295;28;20201;-73
2021/06/16 07:32:07;;;;;;;7.53;4.75;;;;;;;22.56;77.32;96240.97;5045241;28;20205;-73
2021/06/16 07:34:33;;;;;;;9.40;4.60;;;;;;;22.71;76.42;96238.47;5045553;28;20224;-73
2021/06/16 07:37:00;;;;;;;14.25;5.30;;;;;;;22.83;74.32;96236.44;5045612;28;20208;-73
2021/06/16 07:39:27;;;;;;;7.50;4.95;;;;;;;23.02;77.46;96243.13;5045174;28;20741;-73
2021/06/16 07:41:54;;;;;;;9.00;4.90;;;;;;;23.08;76.80;96245.59;5045088;28;20201;-73
2021/06/16 07:44:20;;;;;;;9.50;4.82;;;;;;;23.16;75.43;96242.44;5043392;28;20241;-73
2021/06/16 07:46:48;;;;;;;10.98;4.53;;;;;;;23.14;76.47;96251.84;5042229;28;20205;-73
2021/06/16 07:49:14;;;;;;;11.10;4.88;;;;;;;23.08;76.69;96242.91;5044421;28;20578;-73
2021/06/16 07:51:41;;;;;;;8.68;4.40;;;;;;;23.25;74.47;96250.88;5043436;28;20217;-73
2021/06/16 07:54:11;;;;;;;8.27;4.53;;;;;;;23.39;73.23;96248.31;5043645;28;20232;-73
2021/06/16 07:56:37;;;;;;;6.90;3.92;;;;;;;23.50;73.39;96247.34;5043841;28;20216;-73
2021/06/16 07:59:04;;;;;;;5.78;4.28;;;;;;;23.75;70.81;96241.38;5044043;28;20221;-73
2021/06/16 08:01:30;;;;;;;7.53;4.63;;;;;;;23.60;72.60;96239.34;5042217;28;20984;-73
2021/06/16 08:03:58;;;;;;;7.80;3.95;;;;;;;23.93;70.30;96250.66;5044345;28;21185;-73
2021/06/16 08:06:24;;;;;;;9.73;4.13;;;;;;;23.96;70.57;96244.75;5044210;28;21145;-73
2021/06/16 08:08:51;;;;;;;6.55;4.35;;;;;;;23.94;74.13;96248.75;5041739;28;20404;-73
2021/06/16 08:11:17;;;;;;;10.98;4.53;;;;;;;23.99;71.43;96243.41;5042383;28;20310;-73
2021/06/16 08:13:44;;;;;;;10.18;3.83;;;;;;;24.20;70.32;96250.56;5041162;28;20227;-73
2021/06/16 08:16:10;;;;;;;9.95;4.10;;;;;;;24.34;67.89;96252.53;5042511;28;20209;-73
2021/06/16 08:18:37;;;;;;;10.00;4.10;;;;;;;24.39;68.91;96244.50;5042746;28;20201;-73
2021/06/16 08:21:05;;;;;;;6.30;4.15;;;;;;;24.45;67.85;96248.81;5042250;28;20217;-73
2021/06/16 08:23:31;;;;;;;7.35;4.07;;;;;;;24.57;65.38;96250.22;5043875;28;20696;-73
2021/06/16 08:25:58;;;;;;;6.18;3.72;;;;;;;24.66;67.34;96239.75;5042553;28;20741;-73
2021/06/16 08:28:24;;;;;;;7.13;4.07;;;;;;;24.63;69.40;96243.78;5041972;28;20206;-73
2021/06/16 08:30:51;;;;;;;6.72;3.75;;;;;;;24.72;65.16;96241.41;5041996;28;20710;-73
2021/06/16 08:33:17;;;;;;;5.82;3.92;;;;;;;24.89;66.11;96240.09;5041652;28;20650;-73
2021/06/16 08:35:44;;;;;;;9.35;4.13;;;;;;;24.70;64.43;96233.56;5042115;28;20248;-73
2021/06/16 08:38:12;;;;;;;6.72;4.10;;;;;;;24.92;65.33;96226.09;5036937;28;20433;-73
2021/06/16 08:40:38;;;;;;;8.65;4.60;;;;;;;24.97;62.07;96231.50;5033870;28;20705;-74
2021/06/16 08:43:05;;;;;;;8.55;3.70;;;;;;;25.15;64.38;96233.72;5035041;28;20208;-73
2021/06/16 08:45:38;;;;;;;9.20;3.60;;;;;;;25.44;65.15;96229.44;5034873;28;20590;-73
2021/06/16 08:48:05;;;;;;;9.63;3.78;;;;;;;25.43;62.27;96230.50;5035761;28;20213;-73
2021/06/16 08:50:32;;;;;;;9.05;3.50;;;;;;;25.60;62.02;96231.88;5035416;28;20217;-73
2021/06/16 08:52:59;;;;;;;9.88;3.80;;;;;;;25.42;60.18;96229.72;5034006;28;20201;-74
2021/06/16 08:55:27;;;;;;;6.57;3.17;;;;;;;25.83;60.90;96224.06;5036346;28;20221;-73
2021/06/16 08:57:53;;;;;;;7.50;3.60;;;;;;;25.85;59.39;96227.31;5037434;28;20577;-73
2021/06/16 09:00:23;;;;;;;8.25;3.55;;;;;;;26.04;60.04;96214.84;5037708;28;20205;-74
2021/06/16 09:02:49;;;;;;;9.65;3.30;;;;;;;25.94;61.41;96214.03;5037016;28;20196;-73
2021/06/16 09:05:16;;;;;;;8.95;3.60;;;;;;;25.98;59.22;96221.34;5032278;28;20221;-73
2021/06/16 09:07:45;;;;;;;7.72;3.20;;;;;;;26.09;60.75;96209.41;5036813;28;20212;-74
2021/06/16 09:10:14;;;;;;;9.27;3.58;;;;;;;26.35;59.62;96212.88;5037437;28;20201;-73
2021/06/16 09:12:45;;;;;;;10.10;3.17;;;;;;;26.44;59.92;96207.47;5036913;28;20205;-73
2021/06/16 09:15:16;;;;;;;8.35;3.67;;;;;;;26.37;57.63;96210.75;5036188;28;20236;-74
2021/06/16 09:17:58;;;;;;;4.35;3.15;;;;;;;26.43;57.12;96204.25;5037192;28;20197;-73
2021/06/16 09:20:25;;;;;;;9.25;3.42;;;;;;;26.34;59.59;96201.28;5037094;28;20197;-73
2021/06/16 09:23:07;;;;;;;6.57;3.20;;;;;;;26.54;58.39;96206.63;5037285;28;20662;-73
2021/06/16 09:25:34;;;;;;;6.93;3.40;;;;;;;26.82;57.94;96205.94;5038254;28;20225;-74
2021/06/16 09:28:03;;;;;;;9.60;3.55;;;;;;;26.98;59.31;96207.50;5041315;28;20201;-73
2021/06/16 09:30:43;;;;;;;4.68;3.05;;;;;;;27.10;54.22;96203.38;5041437;28;20271;-73
2021/06/16 09:33:17;;;;;;;6.95;2.95;;;;;;;27.19;51.86;96205.19;5041099;28;20227;-73
2021/06/16 09:35:45;;;;;;;7.22;2.85;;;;;;;27.13;48.28;96206.31;5037150;28;20242;-73
2021/06/16 09:38:23;;;;;;;2.95;2.40;;;;;;;27.30;50.91;96201.34;5041970;28;20777;-73
2021/06/16 09:40:50;;;;;;;4.38;2.78;;;;;;;27.40;47.82;96206.66;5041714;28;20197;-73
2021/06/16 09:43:20;;;;;;;5.13;2.63;;;;;;;27.39;47.09;96206.94;5040807;28;20205;-73
2021/06/16 09:45:53;;;;;;;3.65;2.38;;;;;;;27.51;46.33;96207.38;5040062;28;20231;-73
2021/06/16 09:48:25;;;;;;;9.55;4.30;;;;;;;27.59;47.08;96199.50;5041885;28;20616;-73
2021/06/16 09:50:54;;;;;;;5.55;2.83;;;;;;;27.78;46.05;96203.13;5041051;28;20229;-73
2021/06/16 09:53:21;;;;;;;5.35;2.65;;;;;;;28.06;46.05;96197.69;5041082;28;20205;-73
2021/06/16 09:55:48;;;;;;;6.40;2.60;;;;;;;28.23;43.23;96198.09;5040244;28;21311;-73
2021/06/16 09:58:17;;;;;;;5.80;2.75;;;;;;;28.19;47.50;96193.53;5041082;28;20212;-74
2021/06/16 10:00:47;;;;;;;5.78;2.78;;;;;;;28.28;43.41;96195.31;5040787;28;20197;-73
2021/06/16 10:03:16;;;;;;;6.18;3.20;;;;;;;28.52;46.63;96194.22;5041048;28;20289;-74
2021/06/16 10:06:03;;;;;;;7.80;2.83;;;;;;;28.59;44.23;96189.25;5040200;28;20743;-73
2021/06/16 10:08:29;;;;;;;11.32;2.80;;;;;;;28.57;43.78;96191.44;5041640;28;20286;-74
2021/06/16 10:10:56;;;;;;;7.22;2.40;;;;;;;28.51;43.10;96181.78;5042047;28;20229;-74
2021/06/16 10:13:24;;;;;;;6.47;2.70;;;;;;;28.58;43.22;96190.34;5041776;28;20209;-74
2021/06/16 10:15:52;;;;;;;4.25;2.25;;;;;;;28.67;44.05;96188.63;5040748;28;20240;-74
2021/06/16 10:18:19;;;;;;;8.48;2.90;;;;;;;28.76;41.83;96192.31;5041894;28;20205;-74
2021/06/16 10:20:46;;;;;;;2.85;2.47;;;;;;;28.85;45.71;96182.44;5041381;28;20228;-73
2021/06/16 10:23:12;;;;;;;5.45;2.40;;;;;;;28.65;45.02;96177.22;5042335;28;20212;-73
2021/06/16 10:25:39;;;;;;;4.57;2.40;;;;;;;28.95;47.32;96176.88;5041782;28;20224;-74
2021/06/16 10:28:07;;;;;;;7.47;2.50;;;;;;;29.07;44.41;96185.38;5042747;28;20201;-73
2021/06/16 10:30:40;;;;;;;10.80;2.70;;;;;;;29.12;43.57;96188.03;5041665;28;20197;-74
2021/06/16 10:33:27;;;;;;;5.93;2.83;;;;;;;29.26;45.81;96183.47;5041997;28;20209;-73
2021/06/16 10:36:07;;;;;;;3.95;2.60;;;;;;;29.12;44.62;96188.03;5040384;28;20221;-74
2021/06/16 10:38:33;;;;;;;4.30;2.75;;;;;;;29.16;43.75;96180.91;5041169;28;20197;-74
2021/06/16 10:41:00;;;;;;;5.28;2.88;;;;;;;28.99;43.88;96186.03;5041364;28;20519;-74
2021/06/16 10:43:31;;;;;;;6.35;2.58;;;;;;;28.71;44.59;96165.22;5038810;28;20307;-74
2021/06/16 10:46:07;;;;;;;5.10;2.40;;;;;;;28.91;46.79;96167.72;5038643;28;20213;-74
2021/06/16 10:48:56;;;;;;;4.93;2.60;;;;;;;28.85;43.18;96170.78;5039605;28;20205;-74
2021/06/16 10:51:28;;;;;;;4.70;2.45;;;;;;;29.01;42.16;96175.72;5043742;28;20302;-74
2021/06/16 10:54:18;;;;;;;3.67;2.50;;;;;;;29.13;41.33;96176.88;5041801;28;20206;-73
2021/06/16 10:56:47;;;;;;;6.63;2.65;;;;;;;29.17;44.36;96175.16;5039953;28;20212;-74
2021/06/16 10:59:14;;;;;;;9.30;2.60;;;;;;;29.09;44.47;96175.03;5041192;28;20215;-74
2021/06/16 11:01:48;;;;;;;5.95;2.58;;;;;;;28.87;41.99;96166.69;5039394;28;20198;-74
2021/06/16 11:04:31;;;;;;;4.68;2.85;;;;;;;28.88;44.32;96165.56;5039355;28;20595;-73
2021/06/16 11:06:57;;;;;;;5.38;2.88;;;;;;;29.05;43.99;96171.31;5039015;28;20197;-73
2021/06/16 11:09:51;;;;;;;4.80;2.63;;;;;;;29.43;44.64;96173.72;5040813;28;20209;-73
2021/06/16 11:12:28;;;;;;;5.43;2.55;;;;;;;29.14;44.53;96164.91;5039742;28;20225;-73
2021/06/16 11:14:54;;;;;;;7.70;2.70;;;;;;;29.37;42.77;96169.47;5039393;28;20228;-74
2021/06/16 11:17:47;;;;;;;5.15;2.40;;;;;;;29.43;41.17;96167.47;5039644;28;20221;-73
2021/06/16 11:20:22;;;;;;;4.78;2.70;;;;;;;29.34;41.42;96159.22;5038670;28;20251;-73
2021/06/16 11:22:52;;;;;;;4.03;2.20;;;;;;;29.57;40.46;96163.72;5040031;28;20197;-73
2021/06/16 11:25:40;;;;;;;3.75;2.35;;;;;;;29.40;41.46;96160.72;5038636;28;20252;-73
2021/06/16 11:28:09;;;;;;;6.93;2.65;;;;;;;29.53;44.73;96159.97;5038640;28;20209;-73
2021/06/16 11:30:42;;;;;;;3.10;2.20;;;;;;;29.71;41.23;96149.06;5039112;28;20202;-73
2021/06/16 11:33:35;;;;;;;4.25;2.40;;;;;;;29.63;39.03;96149.75;5038090;28;20229;-73